Time;durP1;ratioP1;P1;durP2;ratioP2;P2;SDS_P1;SDS_P2;PMS_P1;PMS_P2;Temp;Humidity;BMP_temperature;BMP_pressure;BME280_temperature;BME280_humidity;BME280_pressure;Samples;Min_cycle;Max_cycle;Signal;HPM_P1;HPM_P2
2022/01/13 00:02:24;;;;;;;44.13;31.93;;;-3.40;99.90;;;;;;5053659;28;20465;-76
2022/01/13 00:04:50;;;;;;;39.93;29.23;;;-3.40;99.90;;;;;;5057933;28;20452;-77
2022/01/13 00:07:17;;;;;;;39.80;30.37;;;-3.40;99.90;;;;;;5057274;28;20512;-76
2022/01/13 00:09:44;;;;;;;36.07;28.23;;;-3.50;99.90;;;;;;5061146;28;20845;-76
2022/01/13 00:12:13;;;;;;;40.13;29.90;;;-3.50;99.90;;;;;;5060540;28;20433;-76
2022/01/13 00:14:53;;;;;;;37.33;28.33;;;-3.50;99.90;;;;;;5059407;28;20541;-76
2022/01/13 00:17:44;;;;;;;38.33;29.50;;;-3.60;99.90;;;;;;5060931;28;20446;-76
2022/01/13 00:20:28;;;;;;;41.43;31.80;;;-3.60;99.90;;;;;;5064834;28;20851;-76
2022/01/13 00:25:37;;;;;;;36.23;29.07;;;-3.60;99.90;;;;;;5051057;28;20436;-77
2022/01/13 00:28:12;;;;;;;38.00;29.50;;;-3.70;99.90;;;;;;5057965;28;20438;-77
2022/01/13 00:30:39;;;;;;;31.43;27.30;;;-3.70;99.90;;;;;;5065092;28;20474;-77
2022/01/13 00:33:08;;;;;;;36.07;28.27;;;-3.80;99.90;;;;;;5061736;28;20436;-76
2022/01/13 00:35:35;;;;;;;39.17;31.23;;;-3.80;99.90;;;;;;5064674;28;20482;-76
2022/01/13 00:38:02;;;;;;;38.13;30.53;;;-3.90;99.90;;;;;;5062421;28;20448;-76
2022/01/13 00:40:28;;;;;;;38.80;30.23;;;-3.90;99.90;;;;;;5075886;28;20467;-76
2022/01/13 00:42:55;;;;;;;36.43;29.60;;;-3.90;99.90;;;;;;5062160;28;20465;-76
2022/01/13 00:45:22;;;;;;;38.97;28.80;;;-3.80;99.90;;;;;;5058472;28;20506;-77
2022/01/13 00:47:49;;;;;;;37.90;29.73;;;-3.80;99.90;;;;;;5058454;28;20459;-76
2022/01/13 00:50:18;;;;;;;40.60;31.27;;;-3.80;99.90;;;;;;5062502;28;20456;-76
2022/01/13 00:52:45;;;;;;;38.00;30.27;;;-3.70;99.90;;;;;;5062192;28;20429;-76
2022/01/13 00:55:17;;;;;;;38.37;30.23;;;-3.70;99.90;;;;;;5062329;28;20877;-76
2022/01/13 00:57:44;;;;;;;40.27;29.77;;;-3.70;99.90;;;;;;5062322;28;20449;-76
2022/01/13 01:00:12;;;;;;;40.63;30.53;;;-3.70;99.90;;;;;;5065445;28;20449;-76
2022/01/13 01:02:38;;;;;;;41.13;31.33;;;-3.70;99.90;;;;;;5060152;28;20497;-76
2022/01/13 01:05:06;;;;;;;40.53;31.57;;;-3.80;99.90;;;;;;5058279;28;20449;-76
2022/01/13 01:07:35;;;;;;;42.90;30.77;;;-3.70;99.90;;;;;;5062506;28;20442;-77
2022/01/13 01:10:03;;;;;;;40.40;29.83;;;-3.70;99.90;;;;;;5062092;28;20498;-76
2022/01/13 01:12:32;;;;;;;38.53;28.90;;;-3.70;99.90;;;;;;5054142;28;20447;-76
2022/01/13 01:14:59;;;;;;;37.40;30.83;;;-3.70;99.90;;;;;;5061779;28;20543;-77
2022/01/13 01:17:26;;;;;;;41.60;31.67;;;-3.70;99.90;;;;;;5063902;28;20462;-76
2022/01/13 01:19:53;;;;;;;37.10;28.83;;;-3.70;99.90;;;;;;5062365;28;20479;-77
2022/01/13 01:25:30;;;;;;;32.30;27.03;;;-3.80;99.90;;;;;;5055074;28;20474;-76
2022/01/13 01:27:58;;;;;;;39.60;29.33;;;-3.80;99.90;;;;;;5050251;28;20440;-77
2022/01/13 01:30:31;;;;;;;37.23;30.40;;;-3.80;99.90;;;;;;5061965;28;20890;-76
2022/01/13 01:32:58;;;;;;;38.77;28.87;;;-3.80;99.90;;;;;;5060234;28;20493;-77
2022/01/13 01:35:27;;;;;;;39.17;29.27;;;-3.90;99.90;;;;;;5061816;28;20434;-77
2022/01/13 01:37:54;;;;;;;37.33;28.60;;;-3.90;99.90;;;;;;5061652;28;20460;-76
2022/01/13 01:40:24;;;;;;;40.53;31.67;;;-3.80;99.90;;;;;;5057809;28;20474;-76
2022/01/13 01:42:51;;;;;;;40.67;29.33;;;-3.80;99.90;;;;;;5058339;28;20453;-76
2022/01/13 01:45:19;;;;;;;40.20;30.93;;;-3.80;99.90;;;;;;5061373;28;20502;-77
2022/01/13 01:47:50;;;;;;;37.43;28.30;;;-3.80;99.90;;;;;;5061155;28;20483;-77
2022/01/13 01:50:20;;;;;;;40.40;29.30;;;-3.80;99.90;;;;;;5060302;28;20472;-77
2022/01/13 01:52:49;;;;;;;44.70;32.43;;;-3.80;99.90;;;;;;5059219;28;20486;-77
2022/01/13 01:55:17;;;;;;;39.87;29.60;;;-3.90;99.90;;;;;;5062612;28;20440;-76
2022/01/13 01:57:47;;;;;;;39.30;30.10;;;-3.80;99.90;;;;;;5061488;28;20503;-77
2022/01/13 02:00:17;;;;;;;36.57;28.83;;;-3.90;99.90;;;;;;5058276;28;20466;-76
2022/01/13 02:02:44;;;;;;;33.50;27.57;;;-4.00;99.90;;;;;;5061880;28;20464;-76
2022/01/13 02:05:12;;;;;;;43.00;31.60;;;-4.10;99.90;;;;;;5061012;28;20452;-76
2022/01/13 02:07:39;;;;;;;44.57;30.80;;;-4.10;99.90;;;;;;5061243;28;20468;-76
2022/01/13 02:10:07;;;;;;;33.70;28.03;;;-4.10;99.90;;;;;;5061584;28;20468;-76
2022/01/13 02:12:38;;;;;;;37.47;28.40;;;-4.10;99.90;;;;;;5057913;28;20494;-76
2022/01/13 02:17:53;;;;;;;39.03;29.07;;;-4.20;99.90;;;;;;5063988;28;20433;-77
2022/01/13 02:20:22;;;;;;;39.00;29.60;;;-4.20;99.90;;;;;;5059777;28;20455;-76
2022/01/13 02:22:48;;;;;;;41.93;31.20;;;-4.20;99.90;;;;;;5061670;28;20499;-76
2022/01/13 02:25:16;;;;;;;45.10;32.10;;;-4.20;99.90;;;;;;5062562;28;20432;-76
2022/01/13 02:27:44;;;;;;;56.70;37.57;;;-4.10;99.90;;;;;;5060537;28;20452;-76
2022/01/13 02:30:12;;;;;;;62.67;38.87;;;-4.10;99.90;;;;;;5056105;28;20469;-77
2022/01/13 02:32:39;;;;;;;58.27;36.13;;;-4.10;99.90;;;;;;5064015;28;20496;-76
2022/01/13 02:35:07;;;;;;;51.00;33.67;;;-4.00;99.90;;;;;;5063392;28;20502;-77
2022/01/13 02:37:35;;;;;;;47.50;32.93;;;-4.10;99.90;;;;;;5063911;28;20441;-76
2022/01/13 02:40:02;;;;;;;45.63;33.23;;;-4.00;99.90;;;;;;5063820;28;20971;-77
2022/01/13 02:42:29;;;;;;;45.73;33.00;;;-4.00;99.90;;;;;;5058346;28;20467;-76
2022/01/13 02:45:02;;;;;;;44.67;31.17;;;-4.00;99.90;;;;;;5063089;28;20483;-77
2022/01/13 02:48:00;;;;;;;40.10;31.00;;;-4.00;99.90;;;;;;5049917;28;20478;-76
2022/01/13 02:50:27;;;;;;;37.67;30.03;;;-3.90;99.90;;;;;;5056948;28;20490;-76
2022/01/13 02:52:55;;;;;;;40.43;29.47;;;-3.90;99.90;;;;;;5058110;28;20487;-76
2022/01/13 02:55:24;;;;;;;38.50;31.33;;;-3.90;99.90;;;;;;5061344;28;20436;-76
2022/01/13 02:57:50;;;;;;;40.57;29.87;;;-3.90;99.90;;;;;;5058598;28;20453;-77
2022/01/13 03:00:18;;;;;;;41.53;29.93;;;-4.00;99.90;;;;;;5060795;28;20524;-77
2022/01/13 03:02:47;;;;;;;35.40;29.53;;;-3.90;99.90;;;;;;5056807;28;20507;-77
2022/01/13 03:05:15;;;;;;;37.67;29.13;;;-4.00;99.90;;;;;;5061780;28;20447;-75
2022/01/13 03:07:42;;;;;;;38.73;30.37;;;-4.00;99.90;;;;;;5058616;28;20427;-76
2022/01/13 03:10:12;;;;;;;38.67;30.37;;;-4.00;99.90;;;;;;5055775;28;20458;-77
2022/01/13 03:12:42;;;;;;;40.93;29.53;;;-4.00;99.90;;;;;;5059103;28;20853;-76
2022/01/13 03:15:10;;;;;;;36.87;28.97;;;-4.00;99.90;;;;;;5059256;28;20455;-76
2022/01/13 03:17:37;;;;;;;36.07;28.40;;;-4.10;99.90;;;;;;5061207;28;20456;-76
2022/01/13 03:20:06;;;;;;;34.70;27.70;;;-4.10;99.90;;;;;;5058637;28;20465;-76
2022/01/13 03:22:32;;;;;;;40.40;30.00;;;-4.10;99.90;;;;;;5061596;28;20469;-76
2022/01/13 03:24:59;;;;;;;38.50;29.70;;;-4.00;99.90;;;;;;5061656;28;20439;-76
2022/01/13 03:27:34;;;;;;;43.00;30.80;;;-4.00;99.90;;;;;;5054770;28;20460;-77
2022/01/13 03:30:04;;;;;;;38.13;29.57;;;-4.10;99.90;;;;;;5056182;28;20880;-76
2022/01/13 03:32:32;;;;;;;35.43;30.10;;;-4.00;99.90;;;;;;5052124;28;20505;-78
2022/01/13 03:34:59;;;;;;;37.67;29.37;;;-4.10;99.90;;;;;;5060294;28;20904;-76
2022/01/13 03:37:27;;;;;;;37.40;29.53;;;-4.10;99.90;;;;;;5061289;28;20895;-76
2022/01/13 03:39:54;;;;;;;39.13;30.17;;;-4.00;99.90;;;;;;5060584;28;20465;-78
2022/01/13 03:42:21;;;;;;;38.03;30.80;;;-4.00;99.90;;;;;;5064514;28;20479;-80
2022/01/13 03:44:49;;;;;;;39.53;30.10;;;-4.00;99.90;;;;;;5060141;28;20524;-81
2022/01/13 03:47:16;;;;;;;38.20;29.87;;;-3.90;99.90;;;;;;5063910;28;20452;-81
2022/01/13 03:49:43;;;;;;;35.67;28.37;;;-3.90;99.90;;;;;;5057658;28;20541;-81
2022/01/13 03:52:53;;;;;;;37.13;31.60;;;-3.90;99.90;;;;;;5066803;28;20457;-80
2022/01/13 03:55:57;;;;;;;40.33;30.20;;;-3.80;99.90;;;;;;5052901;28;20456;-80
2022/01/13 03:59:01;;;;;;;35.80;28.17;;;-3.80;99.90;;;;;;5070185;28;20537;-80
2022/01/13 04:01:54;;;;;;;34.30;27.90;;;-3.90;99.90;;;;;;5063422;28;20455;-80
2022/01/13 04:04:20;;;;;;;37.53;29.37;;;-3.80;99.90;;;;;;5059878;28;21223;-80
2022/01/13 04:06:47;;;;;;;35.67;28.63;;;-3.80;99.90;;;;;;5062024;28;20437;-80
2022/01/13 04:09:55;;;;;;;37.50;28.50;;;-3.80;99.90;;;;;;5072243;28;20510;-80
2022/01/13 04:12:25;;;;;;;35.97;27.37;;;-3.80;99.90;;;;;;5066629;28;20452;-79
2022/01/13 04:14:56;;;;;;;39.63;29.50;;;-3.80;99.90;;;;;;5053782;28;20448;-81
2022/01/13 04:17:25;;;;;;;33.40;26.90;;;-3.80;99.90;;;;;;5051364;28;20904;-76
2022/01/13 04:19:53;;;;;;;38.03;27.97;;;-3.70;99.90;;;;;;5076449;28;20475;-77
2022/01/13 04:22:21;;;;;;;37.60;29.67;;;-3.80;99.90;;;;;;5053895;28;20498;-79
2022/01/13 04:24:50;;;;;;;37.50;27.90;;;-3.80;99.90;;;;;;5056749;28;20491;-78
2022/01/13 04:27:22;;;;;;;33.40;28.03;;;-3.80;99.90;;;;;;5066691;28;20436;-78
2022/01/13 04:30:00;;;;;;;38.60;29.53;;;-3.80;99.90;;;;;;5062766;28;21115;-79
2022/01/13 04:32:28;;;;;;;35.57;28.00;;;-3.70;99.90;;;;;;5060638;28;20434;-79
2022/01/13 04:34:55;;;;;;;30.97;27.00;;;-3.70;99.90;;;;;;5060091;28;20512;-78
2022/01/13 04:37:22;;;;;;;37.17;29.50;;;-3.80;99.90;;;;;;5062819;28;20522;-78
2022/01/13 04:39:48;;;;;;;31.57;26.90;;;-3.80;99.90;;;;;;5061407;28;20475;-78
2022/01/13 04:42:15;;;;;;;36.93;29.67;;;-3.70;99.90;;;;;;5062657;28;21025;-77
2022/01/13 04:44:42;;;;;;;31.93;25.53;;;-3.80;99.90;;;;;;5060086;28;20497;-78
2022/01/13 04:47:09;;;;;;;34.00;27.53;;;-3.80;99.90;;;;;;5059892;28;20515;-76
2022/01/13 04:49:37;;;;;;;35.97;28.23;;;-3.80;99.90;;;;;;5062618;28;20468;-77
2022/01/13 04:52:04;;;;;;;30.67;26.10;;;-3.80;99.90;;;;;;5062014;28;20429;-77
2022/01/13 04:54:31;;;;;;;31.83;25.90;;;-3.80;99.90;;;;;;5062317;28;20878;-77
2022/01/13 04:57:07;;;;;;;32.47;26.93;;;-3.90;99.90;;;;;;5062983;28;20439;-77
2022/01/13 04:59:34;;;;;;;38.80;28.80;;;-3.80;99.90;;;;;;5050944;28;21011;-77
2022/01/13 05:02:01;;;;;;;35.67;28.20;;;-3.70;99.90;;;;;;5056839;28;20820;-76
2022/01/13 05:04:28;;;;;;;36.83;29.80;;;-3.70;99.90;;;;;;5053385;28;20507;-76
2022/01/13 05:06:56;;;;;;;44.17;32.40;;;-3.70;99.90;;;;;;5061881;28;20441;-76
2022/01/13 05:09:23;;;;;;;37.10;30.17;;;-3.80;99.90;;;;;;5064871;28;20995;-77
2022/01/13 05:11:50;;;;;;;32.53;26.63;;;-3.80;99.90;;;;;;5061379;28;20435;-77
2022/01/13 05:14:16;;;;;;;37.47;29.03;;;-3.90;99.90;;;;;;5064677;28;20463;-77
2022/01/13 05:16:55;;;;;;;36.93;28.63;;;-3.90;99.90;;;;;;5061427;28;20444;-77
2022/01/13 05:19:25;;;;;;;39.30;29.20;;;-3.90;99.90;;;;;;5058339;28;20521;-77
2022/01/13 05:22:15;;;;;;;35.43;28.90;;;-3.90;99.90;;;;;;5057711;28;20453;-77
2022/01/13 05:24:46;;;;;;;35.33;28.43;;;-3.90;99.90;;;;;;5071065;28;20855;-77
2022/01/13 05:27:13;;;;;;;31.87;27.33;;;-3.90;99.90;;;;;;5062854;28;20507;-77
2022/01/13 05:29:40;;;;;;;33.97;27.73;;;-4.00;99.90;;;;;;5063030;28;20485;-77
2022/01/13 05:32:07;;;;;;;34.70;27.43;;;-4.00;99.90;;;;;;5062670;28;20491;-77
2022/01/13 05:34:34;;;;;;;35.17;27.77;;;-4.00;99.90;;;;;;5064818;28;20486;-77
2022/01/13 05:37:01;;;;;;;35.13;27.80;;;-4.00;99.90;;;;;;5064360;28;20428;-76
2022/01/13 05:39:27;;;;;;;35.63;27.93;;;-4.00;99.90;;;;;;5049293;28;20448;-77
2022/01/13 05:41:55;;;;;;;34.50;27.13;;;-4.00;99.90;;;;;;5059679;28;20697;-77
2022/01/13 05:44:22;;;;;;;29.80;26.53;;;-4.10;99.90;;;;;;5062327;28;20537;-77
2022/01/13 05:46:49;;;;;;;30.90;25.50;;;-4.10;99.90;;;;;;5060121;28;21036;-77
2022/01/13 05:49:16;;;;;;;33.50;26.73;;;-4.10;99.90;;;;;;5061798;28;20432;-77
2022/01/13 05:51:45;;;;;;;33.77;28.07;;;-4.10;99.90;;;;;;5063902;28;20491;-77
2022/01/13 05:54:12;;;;;;;39.47;29.80;;;-4.10;99.90;;;;;;5064213;28;20449;-77
2022/01/13 05:56:38;;;;;;;31.77;25.63;;;-4.10;99.90;;;;;;5060374;28;20455;-77
2022/01/13 05:59:06;;;;;;;32.97;27.20;;;-4.10;99.90;;;;;;5059475;28;20460;-79
2022/01/13 06:01:33;;;;;;;34.10;27.63;;;-4.10;99.90;;;;;;5062700;28;20814;-79
2022/01/13 06:04:00;;;;;;;34.67;26.93;;;-4.10;99.90;;;;;;5068188;28;20460;-79
2022/01/13 06:06:27;;;;;;;38.10;28.83;;;-4.20;99.90;;;;;;5061302;28;20440;-79
2022/01/13 06:08:54;;;;;;;37.07;27.43;;;-4.20;99.90;;;;;;5062137;28;20433;-79
2022/01/13 06:11:22;;;;;;;31.97;25.53;;;-4.20;99.90;;;;;;5057723;28;20515;-78
2022/01/13 06:13:49;;;;;;;36.10;27.50;;;-4.20;99.90;;;;;;5058810;28;20503;-78
2022/01/13 06:16:18;;;;;;;30.57;25.80;;;-4.10;99.90;;;;;;5075995;28;20475;-78
2022/01/13 06:18:45;;;;;;;31.60;25.67;;;-4.10;99.90;;;;;;5060028;28;20973;-78
2022/01/13 06:21:11;;;;;;;31.30;25.77;;;-4.20;99.90;;;;;;5061472;28;21138;-79
2022/01/13 06:23:38;;;;;;;34.07;26.53;;;-4.30;99.90;;;;;;5063507;28;20433;-79
2022/01/13 06:26:06;;;;;;;36.13;26.97;;;-4.30;99.90;;;;;;5063158;28;20984;-78
2022/01/13 06:28:33;;;;;;;37.83;27.93;;;-4.20;99.90;;;;;;5058174;28;20445;-79
2022/01/13 06:31:00;;;;;;;44.30;28.60;;;-4.30;99.90;;;;;;5059848;28;20533;-76
2022/01/13 06:33:28;;;;;;;46.40;30.83;;;-4.30;99.90;;;;;;5079181;28;21042;-76
2022/01/13 06:35:55;;;;;;;38.00;28.93;;;-4.30;99.90;;;;;;5061785;28;20854;-76
2022/01/13 06:38:23;;;;;;;43.73;29.50;;;-4.20;99.90;;;;;;5061460;28;20971;-76
2022/01/13 06:40:50;;;;;;;45.67;31.27;;;-4.30;99.90;;;;;;5064597;28;20462;-76
2022/01/13 06:43:17;;;;;;;39.07;28.13;;;-4.30;99.90;;;;;;5060945;28;20451;-76
2022/01/13 06:45:44;;;;;;;37.17;27.57;;;-4.30;99.90;;;;;;5061493;28;20484;-76
2022/01/13 06:48:11;;;;;;;38.80;28.60;;;-4.30;99.90;;;;;;5062482;28;20788;-76
2022/01/13 06:50:39;;;;;;;44.87;29.87;;;-4.40;99.90;;;;;;5057896;28;20487;-76
2022/01/13 06:53:06;;;;;;;37.50;28.13;;;-4.30;99.90;;;;;;5056719;28;20930;-75
2022/01/13 06:55:33;;;;;;;38.17;29.97;;;-4.30;99.90;;;;;;5060168;28;20833;-76
2022/01/13 06:58:00;;;;;;;38.60;30.27;;;-4.20;99.90;;;;;;5059989;28;20997;-76
2022/01/13 07:00:27;;;;;;;38.87;27.87;;;-4.20;99.90;;;;;;5059062;28;20484;-76
2022/01/13 07:02:57;;;;;;;41.67;30.23;;;-4.20;99.90;;;;;;5057563;28;20452;-76
2022/01/13 07:05:24;;;;;;;32.27;27.77;;;-4.20;99.90;;;;;;5059080;28;20527;-76
2022/01/13 07:07:53;;;;;;;37.67;29.17;;;-4.10;99.90;;;;;;5061765;28;20786;-76
2022/01/13 07:10:19;;;;;;;33.83;27.50;;;-4.20;99.90;;;;;;5057383;28;20531;-76
2022/01/13 07:12:46;;;;;;;38.73;28.33;;;-4.20;99.90;;;;;;5060375;28;20504;-76
2022/01/13 07:15:13;;;;;;;35.27;28.50;;;-4.20;99.90;;;;;;5061251;28;20504;-76
2022/01/13 07:17:40;;;;;;;30.47;27.03;;;-4.20;99.90;;;;;;5060120;28;20439;-76
2022/01/13 07:20:08;;;;;;;30.50;27.20;;;-4.10;99.90;;;;;;5061503;28;20500;-76
2022/01/13 07:22:38;;;;;;;34.17;27.83;;;-4.20;99.90;;;;;;5057179;28;20442;-76
2022/01/13 07:25:06;;;;;;;31.80;26.70;;;-4.10;99.90;;;;;;5046608;28;20478;-76
2022/01/13 07:27:33;;;;;;;34.27;27.77;;;-4.20;99.90;;;;;;5062628;28;20773;-75
2022/01/13 07:30:00;;;;;;;35.60;27.77;;;-4.10;99.90;;;;;;5059372;28;20814;-76
2022/01/13 07:32:27;;;;;;;37.10;28.07;;;-4.10;99.90;;;;;;5061790;28;20986;-75
2022/01/13 07:34:54;;;;;;;36.90;27.00;;;-4.00;99.90;;;;;;5059559;28;20787;-76
2022/01/13 07:37:24;;;;;;;32.43;27.17;;;-4.00;99.90;;;;;;5062438;28;20509;-76
2022/01/13 07:39:51;;;;;;;31.43;26.93;;;-4.00;99.90;;;;;;5060904;28;20469;-79
2022/01/13 07:42:19;;;;;;;34.20;25.20;;;-4.00;99.90;;;;;;5057282;28;20433;-76
2022/01/13 07:44:46;;;;;;;35.57;26.87;;;-3.90;99.90;;;;;;5057203;28;20478;-76
2022/01/13 07:47:12;;;;;;;32.03;25.37;;;-3.80;99.90;;;;;;5060598;28;20511;-76
2022/01/13 07:49:39;;;;;;;29.80;24.87;;;-3.80;99.90;;;;;;5062740;28;20985;-76
2022/01/13 07:52:06;;;;;;;28.57;25.20;;;-3.70;99.90;;;;;;5071391;28;20854;-76
2022/01/13 07:54:33;;;;;;;33.70;25.13;;;-3.60;99.90;;;;;;5069934;28;20856;-76
2022/01/13 07:57:00;;;;;;;34.60;24.97;;;-3.50;99.90;;;;;;5071058;28;20452;-76
2022/01/13 07:59:29;;;;;;;28.50;23.73;;;-3.50;99.90;;;;;;5071426;28;20486;-76
2022/01/13 08:01:56;;;;;;;28.60;23.93;;;-3.30;99.90;;;;;;5064149;28;20811;-76
2022/01/13 08:04:23;;;;;;;28.10;23.53;;;-3.20;99.90;;;;;;5059803;28;20911;-76
2022/01/13 08:06:52;;;;;;;27.00;24.10;;;-3.00;99.90;;;;;;5061229;28;20426;-76
2022/01/13 08:09:19;;;;;;;27.60;24.53;;;-2.80;99.90;;;;;;5056137;28;20461;-76
2022/01/13 08:11:46;;;;;;;33.60;26.60;;;-2.60;99.90;;;;;;5059525;28;20483;-76
2022/01/13 08:14:13;;;;;;;29.23;24.83;;;-2.40;99.90;;;;;;5059426;28;20700;-76
2022/01/13 08:16:43;;;;;;;29.50;24.57;;;-2.20;99.90;;;;;;5058691;28;20437;-77
2022/01/13 08:21:55;;;;;;;27.50;24.47;;;-1.80;99.90;;;;;;5059761;28;20438;-76
2022/01/13 08:24:21;;;;;;;27.97;24.87;;;-1.60;99.90;;;;;;5061741;28;20437;-77
2022/01/13 08:26:48;;;;;;;28.40;24.27;;;-1.30;99.90;;;;;;5059500;28;20491;-76
2022/01/13 08:29:15;;;;;;;25.67;23.20;;;-1.00;99.90;;;;;;5062204;28;20778;-76
2022/01/13 08:31:43;;;;;;;29.00;24.50;;;-0.70;99.90;;;;;;5058575;28;20490;-76
2022/01/13 08:34:11;;;;;;;28.03;25.13;;;-0.30;99.90;;;;;;5056255;28;20468;-76
2022/01/13 08:36:38;;;;;;;25.77;23.20;;;0.00;99.90;;;;;;5062204;28;20898;-76
2022/01/13 08:39:05;;;;;;;26.37;23.67;;;0.20;99.90;;;;;;5062992;28;20847;-76
2022/01/13 08:41:32;;;;;;;26.60;23.77;;;0.50;99.90;;;;;;5074456;28;20457;-76
2022/01/13 08:43:59;;;;;;;26.13;23.37;;;0.70;99.90;;;;;;5071804;28;20502;-76
2022/01/13 08:46:26;;;;;;;25.20;22.67;;;1.00;99.90;;;;;;5075073;28;20518;-79
2022/01/13 08:48:54;;;;;;;25.57;22.93;;;0.90;99.90;;;;;;5067555;28;20893;-79
2022/01/13 08:51:21;;;;;;;23.93;21.50;;;0.90;99.90;;;;;;5068175;28;20510;-79
2022/01/13 08:53:48;;;;;;;25.17;22.70;;;1.00;99.90;;;;;;5065952;28;20466;-79
2022/01/13 08:56:16;;;;;;;25.77;23.13;;;1.00;99.90;;;;;;5061944;28;20487;-79
2022/01/13 08:58:43;;;;;;;25.70;23.00;;;0.90;99.90;;;;;;5064138;28;20427;-77
2022/01/13 09:01:10;;;;;;;28.47;23.70;;;0.80;99.90;;;;;;5064859;28;21014;-79
2022/01/13 09:03:37;;;;;;;24.37;21.87;;;0.80;99.90;;;;;;5064558;28;20438;-79
2022/01/13 09:06:06;;;;;;;24.17;21.67;;;0.90;99.90;;;;;;5065436;28;20475;-78
2022/01/13 09:08:33;;;;;;;24.00;21.63;;;0.90;99.90;;;;;;5060336;28;20424;-79
2022/01/13 09:11:00;;;;;;;25.43;22.77;;;0.90;99.90;;;;;;5058268;28;20466;-78
2022/01/13 09:13:29;;;;;;;25.20;22.70;;;0.80;99.90;;;;;;5061721;28;20623;-78
2022/01/13 09:15:59;;;;;;;26.03;23.43;;;0.70;99.90;;;;;;5062016;28;20549;-78
2022/01/13 09:18:45;;;;;;;26.87;23.23;;;0.70;99.90;;;;;;5061842;28;20987;-78
2022/01/13 09:21:14;;;;;;;25.30;22.57;;;0.80;99.90;;;;;;5062337;28;20506;-79
2022/01/13 09:23:41;;;;;;;25.37;22.87;;;0.80;99.90;;;;;;5065328;28;20443;-77
2022/01/13 09:26:08;;;;;;;26.77;23.60;;;0.80;99.90;;;;;;5065982;28;20762;-78
2022/01/13 09:28:35;;;;;;;26.57;22.73;;;0.70;99.90;;;;;;5061727;28;20457;-79
2022/01/13 09:31:02;;;;;;;24.80;22.23;;;0.60;99.90;;;;;;5060012;28;20461;-78
2022/01/13 09:33:29;;;;;;;28.60;24.70;;;0.50;99.90;;;;;;5062972;28;20469;-77
2022/01/13 09:35:57;;;;;;;25.93;23.27;;;0.40;99.90;;;;;;5070591;28;20429;-78
2022/01/13 09:38:25;;;;;;;29.07;25.53;;;0.30;99.90;;;;;;5062852;28;20507;-78
2022/01/13 09:40:54;;;;;;;28.03;24.40;;;0.30;99.90;;;;;;5061515;28;20457;-78
2022/01/13 09:43:22;;;;;;;28.30;25.27;;;0.20;99.90;;;;;;5063849;28;20445;-78
2022/01/13 09:45:49;;;;;;;30.93;25.93;;;0.20;99.90;;;;;;5065257;28;20500;-78
2022/01/13 09:48:16;;;;;;;28.40;24.90;;;0.20;99.90;;;;;;5061083;28;20427;-78
2022/01/13 09:50:45;;;;;;;27.37;24.50;;;0.10;99.90;;;;;;5061055;28;20482;-78
2022/01/13 09:53:12;;;;;;;29.93;25.20;;;0.00;99.90;;;;;;5061579;28;20486;-78
2022/01/13 09:55:41;;;;;;;28.57;24.37;;;0.00;99.90;;;;;;5060168;28;20955;-78
2022/01/13 09:58:10;;;;;;;27.27;24.47;;;0.00;99.90;;;;;;5061165;28;20453;-77
2022/01/13 10:00:38;;;;;;;28.40;24.50;;;0.00;99.90;;;;;;5058505;28;20460;-78
2022/01/13 10:03:11;;;;;;;30.50;25.37;;;0.10;99.90;;;;;;5058141;28;20516;-77
2022/01/13 10:05:47;;;;;;;27.57;24.63;;;0.10;99.90;;;;;;5062055;28;20479;-78
2022/01/13 10:08:14;;;;;;;26.07;23.43;;;0.10;99.90;;;;;;5060974;28;20456;-78
2022/01/13 10:10:43;;;;;;;27.07;24.17;;;0.00;99.90;;;;;;5063269;28;20911;-78
2022/01/13 10:13:13;;;;;;;24.73;22.13;;;0.10;99.90;;;;;;5073054;28;20425;-78
2022/01/13 10:18:46;;;;;;;26.93;22.97;;;0.20;99.90;;;;;;5034157;28;20846;-78
2022/01/13 10:21:15;;;;;;;25.27;22.37;;;0.20;99.90;;;;;;5034778;28;20450;-79
2022/01/13 10:24:02;;;;;;;26.10;22.50;;;0.30;99.90;;;;;;5034529;28;20431;-78
2022/01/13 10:26:31;;;;;;;25.77;22.87;;;0.40;99.90;;;;;;5033193;28;20471;-79
2022/01/13 10:28:58;;;;;;;24.10;21.60;;;0.50;99.90;;;;;;5034729;28;20430;-79
2022/01/13 10:31:43;;;;;;;26.17;23.03;;;0.50;99.90;;;;;;5072122;28;20515;-77
2022/01/13 10:34:22;;;;;;;25.80;23.13;;;0.50;99.90;;;;;;5065403;28;20446;-78
2022/01/13 10:37:10;;;;;;;24.37;21.80;;;0.60;99.90;;;;;;5066283;28;20433;-79
2022/01/13 10:39:58;;;;;;;28.33;25.17;;;0.60;99.90;;;;;;5066663;28;20444;-79
2022/01/13 10:45:34;;;;;;;29.30;25.53;;;0.60;99.90;;;;;;5055068;28;20469;-79
2022/01/13 10:48:03;;;;;;;25.40;22.60;;;0.60;99.90;;;;;;5066065;28;20547;-79
2022/01/13 10:50:33;;;;;;;28.07;25.10;;;0.60;99.90;;;;;;5051775;28;20452;-79
2022/01/13 10:53:03;;;;;;;27.70;24.70;;;0.50;99.90;;;;;;5059247;28;20438;-78
2022/01/13 10:55:32;;;;;;;26.77;23.90;;;0.50;99.90;;;;;;5054713;28;20439;-79
2022/01/13 10:58:01;;;;;;;29.03;24.70;;;0.50;99.90;;;;;;5062123;28;20429;-79
2022/01/13 11:00:31;;;;;;;26.87;24.17;;;0.60;99.90;;;;;;5062348;28;20457;-79
2022/01/13 11:03:08;;;;;;;25.70;22.87;;;0.70;99.90;;;;;;5061756;28;20453;-79
2022/01/13 11:05:38;;;;;;;27.20;24.33;;;0.70;99.90;;;;;;5059068;28;20485;-79
2022/01/13 11:08:06;;;;;;;28.90;25.60;;;0.70;99.90;;;;;;5063125;28;20503;-78
2022/01/13 11:10:34;;;;;;;32.97;25.53;;;0.70;99.90;;;;;;5058395;28;20807;-78
2022/01/13 11:13:05;;;;;;;33.30;27.77;;;0.70;99.90;;;;;;5056447;28;20508;-78
2022/01/13 11:15:34;;;;;;;27.57;24.63;;;0.70;99.90;;;;;;5061030;28;20446;-78
2022/01/13 11:18:03;;;;;;;30.23;27.03;;;0.70;99.90;;;;;;5059325;28;20951;-79
2022/01/13 11:20:30;;;;;;;30.10;25.87;;;0.70;99.90;;;;;;5051575;28;20554;-79
2022/01/13 11:22:58;;;;;;;29.63;25.10;;;0.80;99.90;;;;;;5056744;28;20470;-79
2022/01/13 11:25:27;;;;;;;29.47;26.00;;;0.80;99.90;;;;;;5062842;28;20904;-78
2022/01/13 11:27:57;;;;;;;29.40;25.47;;;0.80;99.90;;;;;;5062874;28;20453;-79
2022/01/13 11:30:29;;;;;;;28.77;25.80;;;0.80;99.90;;;;;;5056422;28;20584;-79
2022/01/13 11:32:57;;;;;;;31.87;27.37;;;0.90;99.90;;;;;;5056730;28;20493;-79
2022/01/13 11:35:27;;;;;;;30.13;26.47;;;0.90;99.90;;;;;;5060368;28;20459;-79
2022/01/13 11:37:56;;;;;;;29.40;25.87;;;1.00;99.90;;;;;;5060082;28;20535;-79
2022/01/13 11:40:38;;;;;;;29.47;24.67;;;1.00;99.90;;;;;;5060791;28;20477;-79
2022/01/13 11:43:08;;;;;;;28.93;25.87;;;1.20;99.90;;;;;;5061195;28;20853;-79
2022/01/13 11:45:41;;;;;;;29.47;26.33;;;1.20;99.90;;;;;;5058551;28;21059;-79
2022/01/13 11:48:15;;;;;;;29.47;26.37;;;1.20;99.90;;;;;;5062939;28;20473;-78
2022/01/13 11:50:46;;;;;;;27.83;24.80;;;1.30;99.90;;;;;;5060680;28;20840;-79
2022/01/13 11:53:34;;;;;;;32.67;25.93;;;1.30;99.90;;;;;;5057405;28;20832;-79
2022/01/13 11:56:05;;;;;;;28.37;25.47;;;1.20;99.90;;;;;;5050825;28;20437;-79
2022/01/13 11:58:41;;;;;;;29.13;25.70;;;1.20;99.90;;;;;;5060286;28;20441;-79
2022/01/13 12:01:11;;;;;;;28.67;23.57;;;1.30;99.90;;;;;;5060054;28;20457;-79
2022/01/13 12:03:42;;;;;;;33.73;26.80;;;1.30;99.90;;;;;;5059852;28;20491;-79
2022/01/13 12:06:09;;;;;;;28.60;24.73;;;1.30;99.90;;;;;;5059204;28;20463;-78
2022/01/13 12:08:44;;;;;;;26.47;23.40;;;1.30;99.90;;;;;;5062655;28;20427;-79
2022/01/13 12:11:27;;;;;;;30.63;25.13;;;1.40;99.90;;;;;;5063950;28;20543;-79
2022/01/13 12:13:53;;;;;;;32.47;26.50;;;1.40;99.90;;;;;;5061841;28;20533;-78
2022/01/13 12:16:52;;;;;;;28.97;24.00;;;1.40;99.90;;;;;;5061110;28;20881;-77
2022/01/13 12:19:28;;;;;;;26.33;23.63;;;1.40;99.90;;;;;;5060277;28;20465;-79
2022/01/13 12:22:03;;;;;;;27.70;24.70;;;1.50;99.90;;;;;;5059933;28;20544;-78
2022/01/13 12:24:53;;;;;;;25.23;22.73;;;1.60;99.90;;;;;;5055417;28;20433;-78
2022/01/13 12:27:23;;;;;;;25.63;23.03;;;1.60;99.90;;;;;;5064102;28;20531;-78
2022/01/13 12:30:04;;;;;;;24.73;22.13;;;1.70;99.90;;;;;;5063586;28;20459;-78
2022/01/13 12:32:39;;;;;;;26.10;23.37;;;1.70;99.90;;;;;;5068243;28;20511;-78
2022/01/13 12:35:09;;;;;;;27.13;23.73;;;1.80;99.90;;;;;;5063548;28;20429;-78
2022/01/13 12:37:39;;;;;;;25.50;22.80;;;1.80;99.90;;;;;;5064355;28;20430;-78
2022/01/13 12:40:24;;;;;;;23.63;21.23;;;1.90;99.90;;;;;;5064789;28;20459;-78
2022/01/13 12:42:53;;;;;;;23.63;21.13;;;2.00;99.90;;;;;;5061814;28;20533;-78
2022/01/13 12:45:29;;;;;;;23.60;21.17;;;2.00;99.90;;;;;;5057485;28;20521;-79
2022/01/13 12:47:59;;;;;;;25.50;22.80;;;2.10;99.90;;;;;;5057976;28;20505;-78
2022/01/13 12:50:28;;;;;;;25.67;23.07;;;2.10;99.90;;;;;;5065764;28;20453;-78
2022/01/13 12:53:06;;;;;;;24.77;22.33;;;2.10;99.90;;;;;;5062962;28;20509;-78
2022/01/13 12:55:33;;;;;;;23.67;21.13;;;2.10;99.90;;;;;;5068825;28;20447;-78
2022/01/13 12:57:59;;;;;;;24.73;22.13;;;2.20;99.90;;;;;;5061262;28;20879;-79
2022/01/13 13:00:27;;;;;;;22.87;20.60;;;2.20;99.90;;;;;;5063395;28;20461;-78
2022/01/13 13:02:58;;;;;;;24.60;21.83;;;2.30;99.90;;;;;;5062426;28;20437;-78